sensor_id;sensor_type;location;lat;lon;timestamp;P1;durP1;ratioP1;P2;durP2;ratioP2
68310;SDS011;55157;51.036;17.058;2022-09-04T14:10:47;10.93;;;2.00;;
68310;SDS011;55157;51.036;17.058;2022-09-04T14:13:21;8.68;;;2.78;;
68310;SDS011;55157;51.036;17.058;2022-09-04T14:15:57;3.72;;;2.42;;
68310;SDS011;55157;51.036;17.058;2022-09-04T14:18:28;7.82;;;2.38;;
68310;SDS011;55157;51.036;17.058;2022-09-04T14:20:58;12.30;;;3.00;;
68310;SDS011;55157;51.036;17.058;2022-09-04T14:23:30;6.65;;;2.22;;
68310;SDS011;55157;51.036;17.058;2022-09-04T14:26:01;6.60;;;2.05;;
68310;SDS011;55157;51.036;17.058;2022-09-04T14:28:29;7.97;;;2.58;;
68310;SDS011;55157;51.036;17.058;2022-09-04T14:30:59;8.82;;;2.60;;
68310;SDS011;55157;51.036;17.058;2022-09-04T14:33:28;5.55;;;2.42;;
68310;SDS011;55157;51.036;17.058;2022-09-04T14:36:01;6.03;;;1.77;;
68310;SDS011;55157;51.036;17.058;2022-09-04T14:38:32;2.53;;;2.03;;
68310;SDS011;55157;51.036;17.058;2022-09-04T14:41:06;6.15;;;2.00;;
68310;SDS011;55157;51.036;17.058;2022-09-04T14:43:36;9.80;;;2.15;;
68310;SDS011;55157;51.036;17.058;2022-09-04T14:46:09;10.90;;;2.72;;
68310;SDS011;55157;51.036;17.058;2022-09-04T14:48:36;10.07;;;2.70;;
68310;SDS011;55157;51.036;17.058;2022-09-04T14:51:08;3.70;;;2.15;;
68310;SDS011;55157;51.036;17.058;2022-09-04T14:53:35;4.13;;;2.20;;
68310;SDS011;55157;51.036;17.058;2022-09-04T14:56:04;5.25;;;2.38;;
68310;SDS011;55157;51.036;17.058;2022-09-04T14:58:35;7.82;;;2.22;;
68310;SDS011;55157;51.036;17.058;2022-09-04T15:01:02;3.75;;;1.92;;
68310;SDS011;55157;51.036;17.058;2022-09-04T15:03:29;2.80;;;1.63;;
68310;SDS011;55157;51.036;17.058;2022-09-04T15:05:56;2.95;;;1.95;;
68310;SDS011;55157;51.036;17.058;2022-09-04T15:08:25;2.78;;;1.70;;
68310;SDS011;55157;51.036;17.058;2022-09-04T15:10:51;17.55;;;3.13;;
68310;SDS011;55157;51.036;17.058;2022-09-04T15:13:30;4.45;;;2.00;;
68310;SDS011;55157;51.036;17.058;2022-09-04T15:15:57;4.28;;;1.92;;
68310;SDS011;55157;51.036;17.058;2022-09-04T15:18:24;5.22;;;2.35;;
68310;SDS011;55157;51.036;17.058;2022-09-04T15:20:52;3.60;;;2.22;;
68310;SDS011;55157;51.036;17.058;2022-09-04T15:23:21;9.68;;;2.10;;
68310;SDS011;55157;51.036;17.058;2022-09-04T15:25:49;4.05;;;2.13;;
68310;SDS011;55157;51.036;17.058;2022-09-04T15:28:17;4.53;;;2.08;;
68310;SDS011;55157;51.036;17.058;2022-09-04T15:30:45;4.80;;;2.13;;
68310;SDS011;55157;51.036;17.058;2022-09-04T15:33:21;27.52;;;2.97;;
68310;SDS011;55157;51.036;17.058;2022-09-04T15:35:52;8.45;;;2.20;;
68310;SDS011;55157;51.036;17.058;2022-09-04T15:38:22;6.07;;;2.83;;
68310;SDS011;55157;51.036;17.058;2022-09-04T15:40:49;6.57;;;2.10;;
68310;SDS011;55157;51.036;17.058;2022-09-04T15:43:17;4.68;;;2.10;;
68310;SDS011;55157;51.036;17.058;2022-09-04T15:45:46;2.72;;;2.00;;
68310;SDS011;55157;51.036;17.058;2022-09-04T15:48:19;2.55;;;2.17;;
68310;SDS011;55157;51.036;17.058;2022-09-04T15:50:52;4.47;;;1.77;;
68310;SDS011;55157;51.036;17.058;2022-09-04T15:55:44;3.88;;;2.22;;
68310;SDS011;55157;51.036;17.058;2022-09-04T15:58:12;3.15;;;2.03;;
68310;SDS011;55157;51.036;17.058;2022-09-04T16:00:51;5.90;;;1.88;;
68310;SDS011;55157;51.036;17.058;2022-09-04T16:03:21;3.05;;;2.05;;
68310;SDS011;55157;51.036;17.058;2022-09-04T16:05:50;7.40;;;1.80;;
68310;SDS011;55157;51.036;17.058;2022-09-04T16:08:18;7.53;;;2.30;;
68310;SDS011;55157;51.036;17.058;2022-09-04T16:10:46;2.92;;;1.70;;
68310;SDS011;55157;51.036;17.058;2022-09-04T16:15:57;2.47;;;1.98;;
68310;SDS011;55157;51.036;17.058;2022-09-04T16:18:36;6.82;;;2.15;;
68310;SDS011;55157;51.036;17.058;2022-09-04T16:21:03;4.38;;;2.15;;
68310;SDS011;55157;51.036;17.058;2022-09-04T16:23:29;3.05;;;2.10;;
68310;SDS011;55157;51.036;17.058;2022-09-04T16:25:55;5.00;;;2.10;;
68310;SDS011;55157;51.036;17.058;2022-09-04T16:28:21;5.07;;;2.50;;
68310;SDS011;55157;51.036;17.058;2022-09-04T16:30:53;7.07;;;2.65;;
68310;SDS011;55157;51.036;17.058;2022-09-04T16:33:20;9.70;;;2.17;;
68310;SDS011;55157;51.036;17.058;2022-09-04T16:35:48;7.55;;;2.53;;
68310;SDS011;55157;51.036;17.058;2022-09-04T16:38:14;5.50;;;2.47;;
68310;SDS011;55157;51.036;17.058;2022-09-04T16:40:43;9.93;;;3.13;;
68310;SDS011;55157;51.036;17.058;2022-09-04T16:43:17;5.70;;;2.75;;
68310;SDS011;55157;51.036;17.058;2022-09-04T16:45:45;3.90;;;2.70;;
68310;SDS011;55157;51.036;17.058;2022-09-04T16:48:12;5.57;;;2.90;;
68310;SDS011;55157;51.036;17.058;2022-09-04T16:50:43;4.68;;;2.67;;
68310;SDS011;55157;51.036;17.058;2022-09-04T16:53:14;5.28;;;3.45;;
68310;SDS011;55157;51.036;17.058;2022-09-04T16:55:42;5.05;;;3.08;;
68310;SDS011;55157;51.036;17.058;2022-09-04T16:58:17;13.75;;;2.85;;
68310;SDS011;55157;51.036;17.058;2022-09-04T17:00:52;8.10;;;2.72;;
68310;SDS011;55157;51.036;17.058;2022-09-04T17:03:20;6.22;;;3.20;;
68310;SDS011;55157;51.036;17.058;2022-09-04T17:05:46;4.78;;;2.72;;
68310;SDS011;55157;51.036;17.058;2022-09-04T17:08:13;4.22;;;2.53;;
68310;SDS011;55157;51.036;17.058;2022-09-04T17:10:42;3.92;;;2.70;;
68310;SDS011;55157;51.036;17.058;2022-09-04T17:13:10;3.72;;;2.78;;
68310;SDS011;55157;51.036;17.058;2022-09-04T17:15:42;14.35;;;3.33;;
68310;SDS011;55157;51.036;17.058;2022-09-04T17:18:08;7.57;;;2.83;;
68310;SDS011;55157;51.036;17.058;2022-09-04T17:20:35;3.75;;;2.50;;
68310;SDS011;55157;51.036;17.058;2022-09-04T17:23:05;3.53;;;2.95;;
68310;SDS011;55157;51.036;17.058;2022-09-04T17:25:35;5.95;;;3.20;;
68310;SDS011;55157;51.036;17.058;2022-09-04T17:28:13;11.43;;;3.33;;
68310;SDS011;55157;51.036;17.058;2022-09-04T17:30:44;36.47;;;3.85;;
68310;SDS011;55157;51.036;17.058;2022-09-04T17:33:11;27.60;;;3.95;;
68310;SDS011;55157;51.036;17.058;2022-09-04T17:35:41;22.13;;;4.20;;
68310;SDS011;55157;51.036;17.058;2022-09-04T17:38:14;9.23;;;3.38;;
68310;SDS011;55157;51.036;17.058;2022-09-04T17:43:12;9.75;;;3.65;;
68310;SDS011;55157;51.036;17.058;2022-09-04T17:45:43;35.55;;;4.72;;
68310;SDS011;55157;51.036;17.058;2022-09-04T17:48:17;19.80;;;3.60;;
68310;SDS011;55157;51.036;17.058;2022-09-04T17:50:48;39.97;;;5.60;;
68310;SDS011;55157;51.036;17.058;2022-09-04T17:53:19;43.67;;;5.13;;
68310;SDS011;55157;51.036;17.058;2022-09-04T17:55:45;12.05;;;3.78;;
68310;SDS011;55157;51.036;17.058;2022-09-04T17:58:14;22.13;;;5.65;;
68310;SDS011;55157;51.036;17.058;2022-09-04T18:00:48;106.18;;;8.25;;
68310;SDS011;55157;51.036;17.058;2022-09-04T18:03:20;100.25;;;10.82;;
68310;SDS011;55157;51.036;17.058;2022-09-04T18:05:47;21.50;;;4.03;;
68310;SDS011;55157;51.036;17.058;2022-09-04T18:08:15;21.17;;;4.78;;
68310;SDS011;55157;51.036;17.058;2022-09-04T18:10:48;16.15;;;4.50;;
68310;SDS011;55157;51.036;17.058;2022-09-04T18:13:16;8.30;;;3.78;;
68310;SDS011;55157;51.036;17.058;2022-09-04T18:15:46;8.15;;;3.08;;
68310;SDS011;55157;51.036;17.058;2022-09-04T18:18:15;10.57;;;3.10;;
68310;SDS011;55157;51.036;17.058;2022-09-04T18:20:42;11.10;;;3.47;;
68310;SDS011;55157;51.036;17.058;2022-09-04T18:23:19;7.28;;;3.15;;
68310;SDS011;55157;51.036;17.058;2022-09-04T18:25:49;11.35;;;4.40;;
68310;SDS011;55157;51.036;17.058;2022-09-04T18:28:17;5.28;;;2.95;;
68310;SDS011;55157;51.036;17.058;2022-09-04T18:30:58;8.02;;;3.70;;
68310;SDS011;55157;51.036;17.058;2022-09-04T18:33:27;38.05;;;5.03;;
68310;SDS011;55157;51.036;17.058;2022-09-04T18:35:54;48.33;;;5.32;;
68310;SDS011;55157;51.036;17.058;2022-09-04T18:38:26;69.18;;;7.30;;
68310;SDS011;55157;51.036;17.058;2022-09-04T18:40:56;131.00;;;8.10;;
68310;SDS011;55157;51.036;17.058;2022-09-04T18:43:25;148.18;;;12.40;;
68310;SDS011;55157;51.036;17.058;2022-09-04T18:45:54;115.38;;;7.88;;
68310;SDS011;55157;51.036;17.058;2022-09-04T18:48:20;117.40;;;9.02;;
68310;SDS011;55157;51.036;17.058;2022-09-04T18:50:48;88.70;;;5.65;;
68310;SDS011;55157;51.036;17.058;2022-09-04T18:53:17;58.58;;;6.38;;
68310;SDS011;55157;51.036;17.058;2022-09-04T18:55:44;18.23;;;3.90;;
68310;SDS011;55157;51.036;17.058;2022-09-04T18:58:33;22.73;;;4.50;;
68310;SDS011;55157;51.036;17.058;2022-09-04T19:01:03;18.92;;;3.95;;
68310;SDS011;55157;51.036;17.058;2022-09-04T19:03:35;20.00;;;3.47;;
68310;SDS011;55157;51.036;17.058;2022-09-04T19:06:08;8.93;;;3.97;;
68310;SDS011;55157;51.036;17.058;2022-09-04T19:08:35;9.25;;;3.30;;
68310;SDS011;55157;51.036;17.058;2022-09-04T19:11:01;8.70;;;3.75;;
68310;SDS011;55157;51.036;17.058;2022-09-04T19:13:29;9.90;;;3.50;;
68310;SDS011;55157;51.036;17.058;2022-09-04T19:15:58;20.83;;;3.53;;
68310;SDS011;55157;51.036;17.058;2022-09-04T19:18:29;106.82;;;7.85;;
68310;SDS011;55157;51.036;17.058;2022-09-04T19:21:08;44.83;;;5.22;;
68310;SDS011;55157;51.036;17.058;2022-09-04T19:23:35;53.47;;;5.97;;
68310;SDS011;55157;51.036;17.058;2022-09-04T19:26:05;122.18;;;9.88;;
68310;SDS011;55157;51.036;17.058;2022-09-04T19:28:38;115.03;;;11.60;;
68310;SDS011;55157;51.036;17.058;2022-09-04T19:31:04;24.10;;;4.15;;
68310;SDS011;55157;51.036;17.058;2022-09-04T19:33:36;26.63;;;4.80;;
68310;SDS011;55157;51.036;17.058;2022-09-04T19:36:03;31.60;;;4.18;;
68310;SDS011;55157;51.036;17.058;2022-09-04T19:38:31;25.00;;;4.07;;
68310;SDS011;55157;51.036;17.058;2022-09-04T19:41:02;12.95;;;3.78;;
68310;SDS011;55157;51.036;17.058;2022-09-04T19:43:29;18.95;;;4.22;;
68310;SDS011;55157;51.036;17.058;2022-09-04T19:45:59;10.38;;;3.55;;
68310;SDS011;55157;51.036;17.058;2022-09-04T19:48:30;9.75;;;4.05;;
68310;SDS011;55157;51.036;17.058;2022-09-04T19:51:01;11.15;;;3.97;;
68310;SDS011;55157;51.036;17.058;2022-09-04T19:53:29;8.07;;;3.88;;
68310;SDS011;55157;51.036;17.058;2022-09-04T19:55:58;9.82;;;4.55;;
68310;SDS011;55157;51.036;17.058;2022-09-04T19:58:27;6.65;;;3.50;;
68310;SDS011;55157;51.036;17.058;2022-09-04T20:00:58;7.95;;;4.55;;
68310;SDS011;55157;51.036;17.058;2022-09-04T20:03:26;8.38;;;3.58;;
68310;SDS011;55157;51.036;17.058;2022-09-04T20:05:53;5.07;;;3.70;;
68310;SDS011;55157;51.036;17.058;2022-09-04T20:08:22;6.72;;;4.35;;
68310;SDS011;55157;51.036;17.058;2022-09-04T20:10:50;6.95;;;4.30;;
68310;SDS011;55157;51.036;17.058;2022-09-04T20:13:18;12.13;;;4.95;;
68310;SDS011;55157;51.036;17.058;2022-09-04T20:15:49;9.05;;;4.82;;
68310;SDS011;55157;51.036;17.058;2022-09-04T20:18:17;6.13;;;4.13;;
68310;SDS011;55157;51.036;17.058;2022-09-04T20:20:45;8.45;;;4.18;;
68310;SDS011;55157;51.036;17.058;2022-09-04T20:23:13;16.15;;;4.43;;
68310;SDS011;55157;51.036;17.058;2022-09-04T20:25:45;27.58;;;5.85;;
68310;SDS011;55157;51.036;17.058;2022-09-04T20:28:14;12.48;;;4.70;;
68310;SDS011;55157;51.036;17.058;2022-09-04T20:30:42;12.30;;;4.45;;
68310;SDS011;55157;51.036;17.058;2022-09-04T20:33:10;8.32;;;4.60;;
68310;SDS011;55157;51.036;17.058;2022-09-04T20:35:37;10.05;;;4.50;;
68310;SDS011;55157;51.036;17.058;2022-09-04T20:38:04;12.20;;;4.70;;
68310;SDS011;55157;51.036;17.058;2022-09-04T20:40:33;10.40;;;4.50;;
68310;SDS011;55157;51.036;17.058;2022-09-04T20:43:15;7.38;;;4.03;;
68310;SDS011;55157;51.036;17.058;2022-09-04T20:45:45;7.25;;;4.72;;
68310;SDS011;55157;51.036;17.058;2022-09-04T20:48:17;11.68;;;4.82;;
68310;SDS011;55157;51.036;17.058;2022-09-04T20:50:47;5.20;;;3.88;;
68310;SDS011;55157;51.036;17.058;2022-09-04T20:53:15;7.70;;;4.50;;
68310;SDS011;55157;51.036;17.058;2022-09-04T20:55:48;5.72;;;4.47;;
68310;SDS011;55157;51.036;17.058;2022-09-04T20:58:28;12.27;;;4.10;;
68310;SDS011;55157;51.036;17.058;2022-09-04T21:00:55;6.80;;;4.00;;
68310;SDS011;55157;51.036;17.058;2022-09-04T21:03:23;10.93;;;4.45;;
68310;SDS011;55157;51.036;17.058;2022-09-04T21:05:56;10.82;;;4.47;;
68310;SDS011;55157;51.036;17.058;2022-09-04T21:08:27;6.20;;;4.63;;
68310;SDS011;55157;51.036;17.058;2022-09-04T21:10:55;9.68;;;4.22;;
68310;SDS011;55157;51.036;17.058;2022-09-04T21:13:25;9.95;;;3.90;;
68310;SDS011;55157;51.036;17.058;2022-09-04T21:15:54;6.90;;;3.97;;
68310;SDS011;55157;51.036;17.058;2022-09-04T21:18:31;6.90;;;3.83;;
68310;SDS011;55157;51.036;17.058;2022-09-04T21:21:12;5.32;;;3.70;;
68310;SDS011;55157;51.036;17.058;2022-09-04T21:23:46;4.40;;;3.25;;
68310;SDS011;55157;51.036;17.058;2022-09-04T21:26:21;4.68;;;3.92;;
68310;SDS011;55157;51.036;17.058;2022-09-04T21:28:54;6.55;;;3.80;;
68310;SDS011;55157;51.036;17.058;2022-09-04T21:31:29;3.83;;;3.33;;
68310;SDS011;55157;51.036;17.058;2022-09-04T21:34:06;5.55;;;4.05;;
68310;SDS011;55157;51.036;17.058;2022-09-04T21:36:38;8.30;;;4.00;;
68310;SDS011;55157;51.036;17.058;2022-09-04T21:39:20;10.52;;;4.13;;
68310;SDS011;55157;51.036;17.058;2022-09-04T21:41:55;11.77;;;4.25;;
68310;SDS011;55157;51.036;17.058;2022-09-04T21:44:34;6.75;;;3.85;;
68310;SDS011;55157;51.036;17.058;2022-09-04T21:47:24;6.32;;;3.42;;
68310;SDS011;55157;51.036;17.058;2022-09-04T21:49:58;4.72;;;3.53;;
68310;SDS011;55157;51.036;17.058;2022-09-04T21:52:31;7.75;;;3.85;;
68310;SDS011;55157;51.036;17.058;2022-09-04T21:55:02;5.90;;;3.80;;
68310;SDS011;55157;51.036;17.058;2022-09-04T21:57:38;5.40;;;4.13;;
68310;SDS011;55157;51.036;17.058;2022-09-04T22:00:09;6.53;;;3.72;;
68310;SDS011;55157;51.036;17.058;2022-09-04T22:02:39;5.57;;;3.50;;
68310;SDS011;55157;51.036;17.058;2022-09-04T22:05:07;4.78;;;3.65;;
68310;SDS011;55157;51.036;17.058;2022-09-04T22:07:38;5.95;;;3.70;;
68310;SDS011;55157;51.036;17.058;2022-09-04T22:12:53;6.97;;;3.80;;
68310;SDS011;55157;51.036;17.058;2022-09-04T22:15:25;9.23;;;4.40;;
68310;SDS011;55157;51.036;17.058;2022-09-04T22:18:00;5.53;;;3.80;;
68310;SDS011;55157;51.036;17.058;2022-09-04T22:20:35;6.18;;;4.15;;
68310;SDS011;55157;51.036;17.058;2022-09-04T22:26:04;5.10;;;3.80;;
68310;SDS011;55157;51.036;17.058;2022-09-04T22:28:48;6.18;;;4.25;;
68310;SDS011;55157;51.036;17.058;2022-09-04T22:31:34;9.98;;;4.38;;
68310;SDS011;55157;51.036;17.058;2022-09-04T22:39:33;5.72;;;3.85;;
68310;SDS011;55157;51.036;17.058;2022-09-04T22:42:07;5.82;;;3.97;;
68310;SDS011;55157;51.036;17.058;2022-09-04T22:44:44;6.43;;;4.10;;
68310;SDS011;55157;51.036;17.058;2022-09-04T22:47:19;7.53;;;4.22;;
68310;SDS011;55157;51.036;17.058;2022-09-04T22:49:50;8.00;;;4.00;;
68310;SDS011;55157;51.036;17.058;2022-09-04T22:52:23;6.90;;;4.05;;
68310;SDS011;55157;51.036;17.058;2022-09-04T22:54:56;7.93;;;4.43;;
68310;SDS011;55157;51.036;17.058;2022-09-04T22:57:27;14.40;;;4.88;;
68310;SDS011;55157;51.036;17.058;2022-09-04T23:00:07;7.80;;;4.80;;
68310;SDS011;55157;51.036;17.058;2022-09-04T23:05:24;8.18;;;4.70;;
68310;SDS011;55157;51.036;17.058;2022-09-04T23:07:59;5.53;;;4.03;;
68310;SDS011;55157;51.036;17.058;2022-09-04T23:10:40;8.82;;;4.85;;
68310;SDS011;55157;51.036;17.058;2022-09-04T23:13:20;11.20;;;4.50;;
68310;SDS011;55157;51.036;17.058;2022-09-04T23:15:55;7.70;;;4.70;;
68310;SDS011;55157;51.036;17.058;2022-09-04T23:18:29;9.57;;;6.60;;
68310;SDS011;55157;51.036;17.058;2022-09-04T23:21:01;6.20;;;4.40;;
68310;SDS011;55157;51.036;17.058;2022-09-04T23:23:33;7.32;;;5.05;;
68310;SDS011;55157;51.036;17.058;2022-09-04T23:28:49;7.50;;;4.95;;
68310;SDS011;55157;51.036;17.058;2022-09-04T23:31:21;6.53;;;4.27;;
68310;SDS011;55157;51.036;17.058;2022-09-04T23:33:59;7.22;;;4.47;;
68310;SDS011;55157;51.036;17.058;2022-09-04T23:36:34;5.65;;;4.45;;
68310;SDS011;55157;51.036;17.058;2022-09-04T23:39:11;6.03;;;4.50;;
68310;SDS011;55157;51.036;17.058;2022-09-04T23:41:40;7.40;;;4.47;;
68310;SDS011;55157;51.036;17.058;2022-09-04T23:44:17;8.02;;;5.22;;
68310;SDS011;55157;51.036;17.058;2022-09-04T23:46:53;10.38;;;5.32;;
68310;SDS011;55157;51.036;17.058;2022-09-04T23:52:10;6.57;;;4.82;;
68310;SDS011;55157;51.036;17.058;2022-09-04T23:57:25;6.70;;;4.45;;
68310;SDS011;55157;51.036;17.058;2022-09-04T23:59:53;6.15;;;4.65;;
